createdAt,value
2023-06-28T00:00:37.949Z,2.97
2023-06-28T00:03:41.152Z,2.88
2023-06-28T00:06:44.179Z,2.80
2023-06-28T00:09:47.164Z,2.77
2023-06-28T00:12:50.146Z,2.77
2023-06-28T00:15:53.237Z,2.97
2023-06-28T00:19:01.465Z,3.28
2023-06-28T00:22:05.602Z,3.22
2023-06-28T00:25:09.063Z,3.40
2023-06-28T00:28:12.035Z,3.10
2023-06-28T00:31:15.074Z,3.08
2023-06-28T00:34:18.081Z,3.38
2023-06-28T00:37:21.306Z,3.30
2023-06-28T00:40:25.948Z,2.87
2023-06-28T00:43:28.940Z,3.20
2023-06-28T00:46:31.909Z,3.38
2023-06-28T00:49:37.471Z,2.78
2023-06-28T00:52:40.973Z,3.00
2023-06-28T00:55:44.156Z,3.00
2023-06-28T00:58:47.170Z,2.93
2023-06-28T01:01:50.687Z,2.90
2023-06-28T01:04:58.593Z,3.00
2023-06-28T01:08:01.639Z,3.05
2023-06-28T01:11:04.643Z,2.83
2023-06-28T01:14:07.886Z,2.90
2023-06-28T01:17:12.630Z,3.03
2023-06-28T01:20:15.702Z,2.90
2023-06-28T01:23:18.811Z,2.67
2023-06-28T01:26:21.808Z,3.10
2023-06-28T01:29:25.827Z,3.17
2023-06-28T01:32:28.982Z,2.65
2023-06-28T01:35:33.063Z,3.40
2023-06-28T01:38:36.164Z,3.20
2023-06-28T01:41:39.829Z,3.03
2023-06-28T01:44:42.788Z,3.30
2023-06-28T01:47:45.938Z,3.25
2023-06-28T01:50:49.951Z,3.08
2023-06-28T01:53:52.960Z,3.33
2023-06-28T01:56:55.974Z,2.90
2023-06-28T01:59:59.034Z,2.70
2023-06-28T02:03:02.252Z,2.70
2023-06-28T02:06:05.435Z,2.70
2023-06-28T02:09:08.736Z,2.90
2023-06-28T02:12:11.869Z,2.97
2023-06-28T02:15:16.406Z,3.57
2023-06-28T02:18:25.910Z,3.22
2023-06-28T02:21:28.996Z,3.25
2023-06-28T02:24:32.012Z,3.40
2023-06-28T02:27:35.013Z,3.50
2023-06-28T02:30:37.987Z,3.10
2023-06-28T02:33:40.954Z,3.28
2023-06-28T02:36:43.959Z,3.05
2023-06-28T02:39:47.278Z,3.15
2023-06-28T02:42:50.278Z,3.43
2023-06-28T02:45:55.439Z,2.80
2023-06-28T02:48:58.510Z,3.03
2023-06-28T02:52:01.554Z,2.67
2023-06-28T02:55:05.629Z,3.30
2023-06-28T02:58:08.991Z,2.57
2023-06-28T03:01:12.321Z,3.30
2023-06-28T03:04:15.435Z,3.17
2023-06-28T03:07:19.910Z,2.80
2023-06-28T03:10:23.798Z,2.92
2023-06-28T03:13:26.801Z,2.90
2023-06-28T03:16:30.329Z,3.10
2023-06-28T03:19:33.388Z,2.92
2023-06-28T03:22:38.180Z,2.92
2023-06-28T03:25:41.540Z,2.63
2023-06-28T03:28:44.928Z,2.90
2023-06-28T03:31:48.690Z,3.30
2023-06-28T03:34:52.464Z,3.03
2023-06-28T03:37:56.410Z,2.63
2023-06-28T03:40:59.427Z,3.47
2023-06-28T03:44:03.040Z,3.50
2023-06-28T03:47:06.499Z,5.30
2023-06-28T03:50:09.823Z,5.68
2023-06-28T03:53:12.958Z,4.88
2023-06-28T03:56:16.657Z,4.82
2023-06-28T03:59:19.692Z,4.27
2023-06-28T04:02:22.877Z,4.40
2023-06-28T04:05:25.999Z,3.67
2023-06-28T04:08:28.994Z,3.17
2023-06-28T04:11:32.196Z,3.13
2023-06-28T04:14:36.642Z,3.40
2023-06-28T04:17:39.909Z,3.20
2023-06-28T04:20:43.202Z,3.00
2023-06-28T04:23:46.527Z,2.92
2023-06-28T04:26:49.501Z,3.20
2023-06-28T04:29:52.497Z,3.00
2023-06-28T04:32:55.487Z,3.30
2023-06-28T04:35:58.791Z,3.30
2023-06-28T04:39:04.504Z,3.00
2023-06-28T04:42:07.766Z,3.38
2023-06-28T04:45:13.021Z,2.90
2023-06-28T04:48:16.064Z,3.00
2023-06-28T04:51:19.656Z,3.28
2023-06-28T04:54:22.626Z,3.63
2023-06-28T04:57:25.748Z,4.00
2023-06-28T05:00:29.907Z,2.77
2023-06-28T05:03:33.097Z,3.27
2023-06-28T05:06:39.253Z,3.38
2023-06-28T05:09:42.237Z,3.38
2023-06-28T05:12:45.204Z,2.80
2023-06-28T05:15:48.217Z,3.00
2023-06-28T05:18:51.250Z,3.10
2023-06-28T05:21:55.343Z,3.20
2023-06-28T05:24:58.343Z,3.08
2023-06-28T05:28:01.324Z,2.80
2023-06-28T05:31:04.364Z,3.43
2023-06-28T05:34:07.569Z,3.20
2023-06-28T05:37:10.599Z,2.88
2023-06-28T05:40:13.760Z,3.25
2023-06-28T05:43:16.765Z,3.10
2023-06-28T05:46:19.852Z,3.00
2023-06-28T05:49:22.881Z,3.70
2023-06-28T05:52:25.913Z,2.83
2023-06-28T05:55:28.882Z,2.97
2023-06-28T05:58:32.041Z,2.60
2023-06-28T06:01:35.130Z,2.90
2023-06-28T06:04:38.424Z,2.60
2023-06-28T06:07:41.482Z,2.05
2023-06-28T06:10:46.795Z,2.20
2023-06-28T06:13:49.882Z,2.38
2023-06-28T06:16:55.060Z,1.93
2023-06-28T06:19:58.061Z,1.87
2023-06-28T06:23:01.168Z,1.67
2023-06-28T06:26:04.159Z,2.10
2023-06-28T06:29:07.209Z,2.08
2023-06-28T06:32:10.329Z,2.03
2023-06-28T06:35:15.125Z,2.10
2023-06-28T06:38:18.162Z,2.00
2023-06-28T06:41:25.011Z,2.00
2023-06-28T06:44:28.371Z,1.63
2023-06-28T06:47:31.401Z,1.80
2023-06-28T06:50:34.461Z,2.00
2023-06-28T06:53:37.475Z,1.90
2023-06-28T06:56:40.566Z,2.00
2023-06-28T06:59:43.764Z,2.03
2023-06-28T07:02:47.096Z,1.70
2023-06-28T07:05:50.184Z,1.90
2023-06-28T07:08:53.303Z,2.20
2023-06-28T07:11:56.469Z,1.80
2023-06-28T07:14:59.520Z,1.92
2023-06-28T07:18:02.590Z,2.00
2023-06-28T07:21:05.652Z,1.73
2023-06-28T07:24:09.294Z,2.45
2023-06-28T07:27:12.377Z,1.98
2023-06-28T07:30:15.706Z,1.80
2023-06-28T07:33:18.671Z,2.73
2023-06-28T07:36:21.728Z,1.90
2023-06-28T07:39:24.803Z,1.80
2023-06-28T07:42:30.675Z,2.03
2023-06-28T07:45:34.488Z,1.80
2023-06-28T07:48:38.394Z,1.97
2023-06-28T07:51:41.414Z,1.70
2023-06-28T07:54:44.406Z,1.70
2023-06-28T07:57:47.449Z,1.90
2023-06-28T08:00:50.786Z,2.15
2023-06-28T08:03:54.555Z,1.80
2023-06-28T08:06:57.565Z,2.10
2023-06-28T08:10:00.552Z,1.70
2023-06-28T08:13:03.585Z,2.13
2023-06-28T08:16:06.598Z,2.08
2023-06-28T08:19:11.333Z,1.53
2023-06-28T08:22:14.377Z,1.80
2023-06-28T08:25:18.580Z,2.03
2023-06-28T08:28:21.636Z,2.28
2023-06-28T08:31:25.411Z,1.90
2023-06-28T08:34:28.421Z,1.90
2023-06-28T08:37:33.038Z,1.87
2023-06-28T08:40:36.013Z,1.90
2023-06-28T08:43:39.010Z,2.25
2023-06-28T08:46:42.463Z,2.25
2023-06-28T08:49:45.476Z,2.30
2023-06-28T08:52:48.957Z,2.17
2023-06-28T08:55:52.447Z,2.33
2023-06-28T08:58:55.480Z,2.42
2023-06-28T09:02:00.753Z,2.33
2023-06-28T09:05:04.566Z,2.23
2023-06-28T09:08:07.651Z,2.87
2023-06-28T09:11:11.657Z,2.67
2023-06-28T09:14:14.759Z,2.90
2023-06-28T09:17:17.805Z,3.17
2023-06-28T09:20:21.650Z,3.07
2023-06-28T09:23:25.577Z,3.23
2023-06-28T09:26:32.402Z,3.25
2023-06-28T09:29:35.770Z,2.65
2023-06-28T09:32:42.301Z,2.33
2023-06-28T09:35:45.943Z,2.30
2023-06-28T09:38:49.652Z,2.33
2023-06-28T09:41:54.168Z,2.00
2023-06-28T09:44:57.505Z,1.88
2023-06-28T09:48:01.656Z,2.13
2023-06-28T09:51:07.543Z,1.80
2023-06-28T09:54:12.502Z,2.40
2023-06-28T09:57:15.561Z,1.90
2023-06-28T10:00:18.736Z,1.67
2023-06-28T10:03:27.387Z,2.20
2023-06-28T10:06:30.526Z,2.30
2023-06-28T10:09:38.952Z,1.93
2023-06-28T10:12:41.914Z,2.28
2023-06-28T10:15:51.098Z,2.08
2023-06-28T10:18:54.165Z,2.80
2023-06-28T10:21:57.530Z,2.87
2023-06-28T10:25:02.369Z,2.03
2023-06-28T10:28:05.478Z,2.88
2023-06-28T10:31:08.657Z,2.60
2023-06-28T10:34:11.698Z,2.65
2023-06-28T10:37:14.712Z,2.57
2023-06-28T10:40:17.780Z,2.40
2023-06-28T10:43:24.503Z,2.20
2023-06-28T10:46:28.075Z,3.00
2023-06-28T10:49:35.360Z,2.85
2023-06-28T10:52:54.408Z,2.40
2023-06-28T10:56:13.808Z,2.90
2023-06-28T10:59:18.445Z,2.58
2023-06-28T11:02:36.192Z,2.03
2023-06-28T11:05:55.459Z,2.30
2023-06-28T11:09:05.123Z,3.53
2023-06-28T11:12:13.552Z,3.27
2023-06-28T11:15:16.581Z,3.17
2023-06-28T11:18:20.355Z,3.40
2023-06-28T11:21:26.565Z,3.42
2023-06-28T11:24:38.243Z,3.83
2023-06-28T11:27:42.499Z,3.50
2023-06-28T11:30:49.341Z,3.78
2023-06-28T11:33:55.541Z,4.38
2023-06-28T11:36:58.554Z,3.50
2023-06-28T11:40:01.621Z,4.03
2023-06-28T11:43:04.709Z,3.50
2023-06-28T11:46:08.254Z,3.03
2023-06-28T11:49:11.270Z,4.20
2023-06-28T11:52:17.914Z,3.90
2023-06-28T11:55:20.991Z,3.43
2023-06-28T11:58:33.992Z,2.00
2023-06-28T12:01:36.979Z,2.17
2023-06-28T12:04:40.555Z,2.13
2023-06-28T12:07:45.935Z,3.28
2023-06-28T12:10:48.974Z,3.70
2023-06-28T12:13:52.148Z,3.93
2023-06-28T12:16:55.967Z,3.45
2023-06-28T12:19:59.074Z,3.70
2023-06-28T12:23:02.187Z,4.20
2023-06-28T12:26:05.194Z,4.27
2023-06-28T12:29:08.810Z,3.77
2023-06-28T12:32:19.338Z,2.28
2023-06-28T12:35:24.484Z,3.90
2023-06-28T12:38:27.612Z,4.00
2023-06-28T12:41:30.606Z,4.30
2023-06-28T12:44:50.294Z,4.03
2023-06-28T12:47:53.305Z,2.40
2023-06-28T12:50:56.860Z,4.30
2023-06-28T12:53:59.952Z,2.00
2023-06-28T12:57:04.366Z,3.37
2023-06-28T13:00:08.150Z,2.37
2023-06-28T13:03:12.249Z,2.13
2023-06-28T13:06:15.554Z,2.80
2023-06-28T13:09:20.519Z,2.40
2023-06-28T13:12:24.412Z,2.10
2023-06-28T13:15:27.442Z,2.10
2023-06-28T13:18:30.452Z,2.00
2023-06-28T13:21:33.453Z,1.98
2023-06-28T13:24:36.414Z,1.80
2023-06-28T13:27:39.374Z,1.77
2023-06-28T13:30:42.349Z,1.70
2023-06-28T13:33:46.007Z,2.08
2023-06-28T13:36:50.107Z,1.63
2023-06-28T13:39:53.204Z,2.20
2023-06-28T13:42:56.308Z,2.10
2023-06-28T13:45:59.459Z,2.27
2023-06-28T13:49:02.456Z,2.08
2023-06-28T13:52:05.793Z,2.17
2023-06-28T13:55:09.246Z,2.00
2023-06-28T13:58:12.306Z,2.00
2023-06-28T14:01:15.495Z,1.67
2023-06-28T14:04:18.597Z,2.00
2023-06-28T14:07:21.649Z,1.80
2023-06-28T14:10:24.860Z,2.00
2023-06-28T14:13:27.900Z,2.10
2023-06-28T14:16:30.908Z,2.00
2023-06-28T14:19:33.893Z,1.40
2023-06-28T14:22:36.930Z,1.63
2023-06-28T14:25:40.029Z,1.88
2023-06-28T14:28:43.292Z,1.70
2023-06-28T14:31:46.428Z,1.93
2023-06-28T14:34:49.518Z,1.80
2023-06-28T14:37:52.655Z,1.90
2023-06-28T14:40:55.614Z,1.33
2023-06-28T14:43:58.599Z,1.57
2023-06-28T14:47:02.625Z,1.90
2023-06-28T14:50:05.990Z,1.77
2023-06-28T14:53:09.957Z,1.60
2023-06-28T14:56:12.978Z,1.90
2023-06-28T14:59:15.983Z,1.53
2023-06-28T15:02:19.012Z,1.50
2023-06-28T15:05:21.999Z,1.92
2023-06-28T15:08:24.968Z,1.95
2023-06-28T15:11:27.977Z,1.60
2023-06-28T15:14:31.525Z,1.70
2023-06-28T15:17:34.571Z,2.17
2023-06-28T15:20:40.861Z,1.50
2023-06-28T15:23:44.362Z,1.90
2023-06-28T15:26:47.458Z,1.65
2023-06-28T15:29:50.384Z,1.90
2023-06-28T15:32:53.526Z,2.13
2023-06-28T15:35:56.552Z,1.60
2023-06-28T15:38:59.588Z,1.67
2023-06-28T15:42:02.903Z,2.03
2023-06-28T15:45:06.441Z,1.67
2023-06-28T15:48:10.213Z,1.50
2023-06-28T15:51:13.168Z,1.63
2023-06-28T15:54:16.176Z,1.63
2023-06-28T15:57:19.169Z,1.30
2023-06-28T16:00:22.694Z,1.57
2023-06-28T16:03:25.763Z,1.57
2023-06-28T16:06:28.856Z,1.30
2023-06-28T16:09:32.094Z,1.30
2023-06-28T16:12:35.207Z,1.60
2023-06-28T16:15:38.205Z,1.50
2023-06-28T16:18:41.196Z,1.50
2023-06-28T16:21:44.538Z,1.85
2023-06-28T16:24:47.654Z,1.75
2023-06-28T16:27:52.819Z,1.75
2023-06-28T16:30:55.920Z,1.70
2023-06-28T16:33:59.002Z,1.90
2023-06-28T16:37:02.008Z,1.60
2023-06-28T16:40:05.449Z,1.77
2023-06-28T16:43:09.472Z,1.58
2023-06-28T16:46:13.832Z,1.40
2023-06-28T16:49:17.051Z,1.60
2023-06-28T16:52:20.065Z,1.80
2023-06-28T16:55:23.302Z,1.73
2023-06-28T16:58:26.295Z,1.60
2023-06-28T17:01:29.494Z,1.63
2023-06-28T17:04:32.579Z,1.70
2023-06-28T17:07:35.661Z,1.70
2023-06-28T17:10:38.820Z,1.75
2023-06-28T17:13:41.932Z,1.67
2023-06-28T17:16:44.988Z,1.73
2023-06-28T17:19:48.007Z,1.60
2023-06-28T17:22:51.048Z,1.50
2023-06-28T17:25:54.235Z,1.35
2023-06-28T17:28:57.853Z,1.48
2023-06-28T17:32:00.893Z,1.93
2023-06-28T17:35:04.267Z,1.60
2023-06-28T17:38:08.352Z,1.23
2023-06-28T17:41:14.058Z,1.58
2023-06-28T17:44:17.078Z,1.38
2023-06-28T17:47:20.067Z,1.40
2023-06-28T17:50:23.090Z,1.40
2023-06-28T17:53:26.133Z,1.40
2023-06-28T17:56:29.890Z,1.45
2023-06-28T17:59:32.872Z,1.38
2023-06-28T18:02:35.938Z,1.50
2023-06-28T18:05:39.370Z,1.60
2023-06-28T18:08:42.396Z,1.40
2023-06-28T18:11:45.361Z,1.52
2023-06-28T18:14:48.378Z,1.60
2023-06-28T18:17:51.427Z,1.40
2023-06-28T18:20:54.438Z,1.77
2023-06-28T18:23:57.443Z,2.00
2023-06-28T18:27:00.803Z,1.55
2023-06-28T18:30:04.555Z,1.52
2023-06-28T18:33:07.658Z,1.60
2023-06-28T18:36:11.386Z,1.57
2023-06-28T18:39:18.783Z,1.55
2023-06-28T18:42:21.829Z,1.85
2023-06-28T18:45:25.110Z,1.50
2023-06-28T18:48:28.110Z,1.40
2023-06-28T18:51:35.807Z,1.60
2023-06-28T18:54:38.788Z,1.60
2023-06-28T18:57:41.802Z,1.83
2023-06-28T19:00:45.026Z,1.73
2023-06-28T19:03:48.216Z,1.93
2023-06-28T19:06:51.195Z,1.83
2023-06-28T19:09:54.239Z,2.00
2023-06-28T19:12:57.521Z,1.83
2023-06-28T19:16:00.503Z,1.70
2023-06-28T19:19:03.532Z,2.03
2023-06-28T19:22:07.950Z,1.77
2023-06-28T19:25:11.019Z,1.52
2023-06-28T19:28:14.070Z,1.95
2023-06-28T19:31:17.089Z,1.63
2023-06-28T19:34:20.167Z,1.70
2023-06-28T19:37:23.135Z,2.00
2023-06-28T19:40:26.157Z,1.60
2023-06-28T19:43:29.097Z,1.58
2023-06-28T19:46:32.167Z,1.60
2023-06-28T19:49:36.390Z,1.73
2023-06-28T19:52:39.367Z,1.90
2023-06-28T19:55:42.432Z,1.73
2023-06-28T19:58:45.476Z,1.90
2023-06-28T20:01:49.706Z,1.80
2023-06-28T20:04:52.718Z,1.60
2023-06-28T20:07:57.548Z,2.10
2023-06-28T20:11:02.139Z,2.20
2023-06-28T20:14:08.130Z,1.50
2023-06-28T20:17:11.340Z,1.73
2023-06-28T20:20:14.615Z,2.00
2023-06-28T20:23:17.665Z,1.63
2023-06-28T20:26:20.673Z,1.42
2023-06-28T20:29:23.699Z,1.60
2023-06-28T20:32:26.834Z,1.63
2023-06-28T20:35:31.685Z,1.90
2023-06-28T20:38:34.753Z,1.80
2023-06-28T20:41:37.749Z,1.88
2023-06-28T20:44:42.783Z,1.83
2023-06-28T20:47:49.596Z,1.85
2023-06-28T20:50:52.608Z,1.83
2023-06-28T20:53:55.588Z,1.90
2023-06-28T20:56:58.566Z,2.28
2023-06-28T21:00:01.558Z,1.83
2023-06-28T21:03:05.472Z,1.65
2023-06-28T21:06:08.528Z,1.50
2023-06-28T21:09:11.525Z,1.47
2023-06-28T21:12:14.559Z,2.03
2023-06-28T21:15:17.641Z,1.42
2023-06-28T21:18:20.611Z,2.20
2023-06-28T21:21:23.645Z,1.93
2023-06-28T21:24:26.616Z,1.97
2023-06-28T21:27:29.693Z,1.90
2023-06-28T21:30:32.920Z,1.95
2023-06-28T21:33:36.536Z,1.73
2023-06-28T21:36:39.560Z,1.77
2023-06-28T21:39:42.591Z,1.83
2023-06-28T21:42:45.614Z,2.15
2023-06-28T21:45:49.288Z,2.40
2023-06-28T21:48:52.512Z,2.20
2023-06-28T21:51:55.969Z,2.10
2023-06-28T21:54:58.950Z,2.00
2023-06-28T21:58:01.942Z,2.22
2023-06-28T22:01:05.056Z,2.30
2023-06-28T22:04:08.112Z,2.20
2023-06-28T22:07:11.116Z,2.27
2023-06-28T22:10:14.170Z,2.20
2023-06-28T22:13:17.521Z,2.00
2023-06-28T22:16:20.725Z,2.08
2023-06-28T22:19:23.716Z,1.77
2023-06-28T22:22:27.306Z,1.90
2023-06-28T22:25:30.391Z,2.10
2023-06-28T22:28:33.949Z,1.90
2023-06-28T22:31:36.949Z,1.85
2023-06-28T22:34:39.934Z,2.28
2023-06-28T22:37:42.922Z,2.40
2023-06-28T22:40:46.947Z,2.13
2023-06-28T22:43:50.014Z,2.10
2023-06-28T22:46:52.989Z,2.13
2023-06-28T22:49:55.948Z,2.28
2023-06-28T22:52:58.937Z,2.00
2023-06-28T22:56:01.974Z,2.17
2023-06-28T22:59:05.490Z,2.20
2023-06-28T23:02:08.450Z,2.00
2023-06-28T23:05:11.508Z,2.28
2023-06-28T23:08:18.017Z,2.27
2023-06-28T23:11:21.120Z,2.43
2023-06-28T23:14:24.123Z,2.33
2023-06-28T23:17:27.293Z,2.20
2023-06-28T23:20:30.335Z,2.20
2023-06-28T23:23:33.576Z,2.27
2023-06-28T23:26:36.508Z,2.40
2023-06-28T23:29:42.521Z,2.53
2023-06-28T23:32:51.874Z,2.25
2023-06-28T23:35:55.080Z,2.15
2023-06-28T23:38:58.053Z,2.20
2023-06-28T23:42:01.070Z,2.30
2023-06-28T23:45:04.295Z,2.05
2023-06-28T23:48:08.983Z,2.40
2023-06-28T23:51:12.955Z,2.45
2023-06-28T23:54:15.917Z,2.50
2023-06-28T23:57:18.893Z,2.30
